RPA5351 KMGW-KPHL
Flight info
| Callsign | RPA5351 |
|---|---|
| Flight time | N/A |
| Altitude | 31000 |
| Route | HAR LRP/N0392F170 V210 BUNTS |
| Aircraft | E170/M-SDE3GILORVW/S |
Departure
| Time | 2026-05-04 23:32 |
|---|---|
| Airport | Morgantown Municipal Airport Walter L. (Bill) Hart Field (KMGW) |
Arrival
| Time | N/A |
|---|---|
| Airport | Philadelphia International Airport (KPHL) |
| Time | Latitude | Longitude | Altitude | Speed | Heading |
|---|---|---|---|---|---|
| 2026-05-04 23:05 | 39.64395 | -79.91961 | 1210 ft | 0 kts | 303° |
| 2026-05-04 23:24 | 39.64396 | -79.91962 | 1210 ft | 0 kts | 303° |
| 2026-05-04 23:24 | 39.64398 | -79.91966 | 1209 ft | 0 kts | 303° |
| 2026-05-04 23:24 | 39.64392 | -79.91953 | 1210 ft | 2 kts | 299° |
| 2026-05-04 23:25 | 39.64385 | -79.91936 | 1212 ft | 2 kts | 299° |
| 2026-05-04 23:25 | 39.64378 | -79.91920 | 1213 ft | 2 kts | 299° |
| 2026-05-04 23:25 | 39.64372 | -79.91908 | 1214 ft | 1 kts | 329° |
| 2026-05-04 23:25 | 39.64364 | -79.91905 | 1215 ft | 0 kts | 356° |
| 2026-05-04 23:27 | 39.64366 | -79.91905 | 1214 ft | 1 kts | 356° |
| 2026-05-04 23:27 | 39.64404 | -79.91910 | 1213 ft | 7 kts | 354° |
| 2026-05-04 23:27 | 39.64476 | -79.91923 | 1211 ft | 13 kts | 354° |
| 2026-05-04 23:28 | 39.64573 | -79.91910 | 1212 ft | 13 kts | 8° |
| 2026-05-04 23:28 | 39.64679 | -79.91922 | 1209 ft | 16 kts | 350° |
| 2026-05-04 23:28 | 39.64804 | -79.91946 | 1204 ft | 18 kts | 353° |
| 2026-05-04 23:28 | 39.64926 | -79.91967 | 1197 ft | 16 kts | 353° |
| 2026-05-04 23:29 | 39.65020 | -79.91979 | 1188 ft | 7 kts | 358° |
| 2026-05-04 23:29 | 39.65053 | -79.91936 | 1183 ft | 3 kts | 83° |
| 2026-05-04 23:29 | 39.65053 | -79.91935 | 1183 ft | 0 kts | 85° |
| 2026-05-04 23:30 | 39.65053 | -79.91932 | 1182 ft | 2 kts | 85° |
| 2026-05-04 23:30 | 39.65053 | -79.91879 | 1181 ft | 8 kts | 111° |
| 2026-05-04 23:30 | 39.65019 | -79.91863 | 1186 ft | 3 kts | 184° |
| 2026-05-04 23:30 | 39.64987 | -79.91863 | 1190 ft | 6 kts | 173° |
| 2026-05-04 23:31 | 39.64953 | -79.91856 | 1194 ft | 0 kts | 173° |
| 2026-05-04 23:31 | 39.64804 | -79.91831 | 1206 ft | 58 kts | 172° |
| 2026-05-04 23:31 | 39.64154 | -79.91715 | 1226 ft | 127 kts | 170° |
| 2026-05-04 23:32 | 39.63182 | -79.91451 | 1542 ft | 151 kts | 167° |
| 2026-05-04 23:32 | 39.62128 | -79.91146 | 2184 ft | 159 kts | 174° |
| 2026-05-04 23:32 | 39.61125 | -79.90700 | 2526 ft | 155 kts | 160° |
| 2026-05-04 23:32 | 39.60036 | -79.90514 | 2054 ft | 157 kts | 185° |
| 2026-05-04 23:33 | 39.58947 | -79.90497 | 2091 ft | 171 kts | 184° |
| 2026-05-04 23:33 | 39.57706 | -79.89914 | 2118 ft | 214 kts | 143° |
| 2026-05-04 23:33 | 39.56975 | -79.88164 | 2287 ft | 234 kts | 100° |
| 2026-05-04 23:33 | 39.57079 | -79.86053 | 2680 ft | 232 kts | 74° |
| 2026-05-04 23:34 | 39.57814 | -79.84302 | 2557 ft | 219 kts | 55° |
| 2026-05-04 23:34 | 39.58533 | -79.82713 | 2626 ft | 195 kts | 62° |
| 2026-05-04 23:34 | 39.59088 | -79.81247 | 2723 ft | 166 kts | 65° |
| 2026-05-04 23:34 | 39.59574 | -79.79804 | 2856 ft | 184 kts | 68° |
| 2026-05-04 23:35 | 39.60058 | -79.78212 | 3203 ft | 197 kts | 69° |
| 2026-05-04 23:35 | 39.60528 | -79.76497 | 3616 ft | 207 kts | 71° |
| 2026-05-04 23:35 | 39.60970 | -79.74705 | 4117 ft | 214 kts | 73° |
| 2026-05-04 23:35 | 39.61386 | -79.72810 | 4650 ft | 219 kts | 75° |
| 2026-05-04 23:36 | 39.61759 | -79.70892 | 5192 ft | 224 kts | 76° |
| 2026-05-04 23:36 | 39.62094 | -79.68924 | 5741 ft | 227 kts | 78° |
| 2026-05-04 23:36 | 39.62399 | -79.66863 | 5832 ft | 249 kts | 79° |
| 2026-05-04 23:36 | 39.62689 | -79.64584 | 5802 ft | 263 kts | 81° |
| 2026-05-04 23:37 | 39.62943 | -79.62211 | 5695 ft | 265 kts | 83° |
| 2026-05-04 23:37 | 39.63158 | -79.59714 | 5760 ft | 294 kts | 84° |
| 2026-05-04 23:37 | 39.63340 | -79.57008 | 5780 ft | 307 kts | 86° |
| 2026-05-04 23:37 | 39.63477 | -79.54222 | 5761 ft | 308 kts | 87° |
| 2026-05-04 23:38 | 39.63564 | -79.51466 | 5760 ft | 309 kts | 89° |
| 2026-05-04 23:38 | 39.63601 | -79.48689 | 5760 ft | 308 kts | 90° |
| 2026-05-04 23:38 | 39.63589 | -79.45938 | 5762 ft | 308 kts | 92° |
| 2026-05-04 23:38 | 39.63528 | -79.43173 | 5760 ft | 307 kts | 93° |
| 2026-05-04 23:39 | 39.63417 | -79.40420 | 5761 ft | 307 kts | 95° |
| 2026-05-04 23:39 | 39.63256 | -79.37646 | 5765 ft | 307 kts | 96° |
| 2026-05-04 23:39 | 39.63046 | -79.34892 | 5771 ft | 306 kts | 98° |
| 2026-05-04 23:39 | 39.62837 | -79.32155 | 5764 ft | 306 kts | 91° |
| 2026-05-04 23:40 | 39.63296 | -79.29475 | 5781 ft | 305 kts | 58° |
| 2026-05-04 23:40 | 39.64661 | -79.27454 | 5803 ft | 297 kts | 36° |
| 2026-05-04 23:40 | 39.66219 | -79.25712 | 5777 ft | 298 kts | 36° |
| 2026-05-04 23:40 | 39.67801 | -79.23944 | 5768 ft | 298 kts | 36° |
| 2026-05-04 23:41 | 39.69353 | -79.22210 | 5761 ft | 296 kts | 36° |